• Join FlightAware (Why Join?)
  • Login
  • US Flag 
07:31PM EDT


 

Airport Tracker/Info


-or-


 

Live Flight TrackerFlight Track Log ✈ OPT429 ✈ 24-Jun-2014 ✈ KRMG - KTVI

Flight Track Log - Related Links

Times and Time Zones

All times are in EDT time to prevent confusion due to time zone crossing. See the OPT429 flight status page for this flight to view local times or setup timezone preferences in your user account.

Time Position Orientation Groundspeed Altitude Reporting Facility
EDT Latitude Longitude Course Direction KTS MPH feet Rate Location/Type
09:01AM 34.2669 -85.1875 195° South 449 517 4,900  Level Atlanta Center
09:02AM 34.2000 -85.2092 195° South 348 400 7,600 6,000 Climbing Atlanta Center
09:04AM 34.0700 -85.2525 195° South 265 305 23,000 5,100 Climbing Atlanta Center
09:05AM 33.9925 -85.2842 199° South 276 318 23,000  Level Atlanta Center
09:06AM 33.9086 -85.3128 196° South 294 338 23,000  Level Atlanta Center
09:07AM 33.8269 -85.3417 196° South 312 359 23,000  Level Atlanta Center
09:08AM 33.7411 -85.3703 195° South 312 359 23,000  Level Atlanta Center
09:09AM 33.6553 -85.3989 196° South 318 366 23,000  Level Atlanta Center
09:10AM 33.5531 -85.3972 179° South 332 382 23,000  Level Atlanta Center
09:11AM 33.4514 -85.3358 153° Southeast 364 419 23,000  Level Atlanta Center
09:12AM 33.3497 -85.2747 153° Southeast 389 448 23,000  Level Atlanta Center
09:13AM 33.2522 -85.2139 152° Southeast 394 453 23,000  Level Atlanta Center
09:14AM 33.1525 -85.1578 155° Southeast 399 459 23,000  Level Atlanta Center
09:15AM 33.0550 -85.0994 153° Southeast 394 453 23,000  Level Atlanta Center
09:16AM 32.9594 -85.0439 154° Southeast 394 453 23,000  Level Atlanta Center
09:17AM 32.8553 -85.0206 169° South 388 447 23,000  Level Atlanta Center
09:18AM 32.7489 -84.9972 170° South 382 440 23,000  Level Atlanta Center
09:19AM 32.6383 -84.9836 174° South 392 451 23,000  Level Atlanta Center
09:20AM 32.5383 -84.9725 175° South 392 451 23,000  Level Atlanta Center
09:21AM 32.4175 -84.9567 174° South 398 458 23,000  Level Atlanta Center
09:22AM 32.3028 -84.9456 175° South 408 470 23,000  Level Atlanta Center
09:23AM 32.2025 -84.9372 176° South 408 470 23,000  Level Atlanta Center
09:23AM 32.0897 -84.9231 174° South 407 468 23,000  Level Jacksonville Center
09:24AM 31.9903 -84.8792 159° South 407 468 23,000  Level Jacksonville Center
09:25AM 31.8894 -84.7864 142° Southeast 407 468 23,000 -120 Level Jacksonville Center
09:26AM 31.7967 -84.7039 143° Southeast 412 474 22,800 -1,200 Descending Jacksonville Center
09:27AM 31.7058 -84.6167 141° Southeast 423 487 20,700 -2,100 Descending Jacksonville Center
09:28AM 31.6153 -84.5319 141° Southeast 423 487 18,700 -2,100 Descending Jacksonville Center
09:29AM 31.5286 -84.4525 142° Southeast 416 479 16,500 -2,340 Descending Jacksonville Center
09:30AM 31.4458 -84.3781 142° Southeast 405 466 14,100 -2,580 Descending Jacksonville Center
09:31AM 31.4294 -84.3631 142° Southeast 359 413 13,400 -2,940 Descending Jacksonville Center
09:31AM 31.3858 -84.3236 142° Southeast 343 395 11,700 -2,820 Descending Jacksonville Center
09:31AM 31.3694 -84.3086 142° Southeast 374 430 11,200 -1,920 Descending Jacksonville Center
09:32AM 31.3117 -84.2544 141° Southeast 329 379 9,800 -1,620 Descending Jacksonville Center
09:32AM 31.3011 -84.2444 141° Southeast 342 394 9,600 -2,100 Descending Jacksonville Center
09:33AM 31.2372 -84.1853 142° Southeast 314 361 7,400 -2,280 Descending Jacksonville Center
09:34AM 31.1731 -84.1286 143° Southeast 299 344 5,100 -2,340 Descending Jacksonville Center
09:35AM 31.1464 -84.0578 114° Southeast 286 329 3,100 -1,380 Descending Jacksonville Center
09:36AM 31.1139 -83.9797 116° Southeast 226 260 2,600 -300 Descending Jacksonville Center
09:37AM 31.0997 -83.9164 105° East 204 235 2,600  Level Jacksonville Center
09:38AM 31.0856 -83.8411 102° East 204 235 2,600  Level Jacksonville Center
09:39AM 31.0736 -83.7756 102° East 205 236 2,600  Level Jacksonville Center
09:40AM 31.0467 -83.7317 126° Southeast 190 219 2,600  Level Jacksonville Center
09:41AM 31.0153 -83.7653 223° Southwest 112 129 2,600 -120 Level Jacksonville Center
09:42AM 30.9919 -83.7942 227° Southwest 118 136 2,400 -420 Descending Jacksonville Center
09:43AM 30.9689 -83.8181 222° Southwest 121 139 1,800 -660 Descending Jacksonville Center
09:44AM 30.9458 -83.8397 219° Southwest 113 130 1,300 -600 Descending Jacksonville Center
09:46AM 30.9000 -83.8667 207° Southwest  Level FlightAware Approximate
09:53AM 30.9018 -83.8811 278° West  Level Estimated
09:54AM 30.9018 -83.8811 North  Level Estimated
09:55AM 30.9018 -83.8811 North  Level Estimated